createdAt,value
2023-02-22T00:00:44.342Z,49.22
2023-02-22T00:05:47.429Z,49.25
2023-02-22T00:10:55.335Z,49.06
2023-02-22T00:15:58.616Z,49.48
2023-02-22T00:21:01.425Z,50.08
2023-02-22T00:26:03.009Z,50.22
2023-02-22T00:31:09.447Z,50.47
2023-02-22T00:36:12.710Z,50.56
2023-02-22T00:41:14.722Z,51.04
2023-02-22T00:46:16.767Z,51.30
2023-02-22T00:51:18.833Z,51.41
2023-02-22T00:56:20.870Z,50.94
2023-02-22T01:01:24.104Z,51.42
2023-02-22T01:06:25.901Z,51.79
2023-02-22T01:11:27.768Z,51.73
2023-02-22T01:16:29.419Z,52.23
2023-02-22T01:21:31.132Z,52.21
2023-02-22T01:26:32.678Z,52.40
2023-02-22T01:31:34.269Z,52.41
2023-02-22T01:36:35.888Z,52.33
2023-02-22T01:41:38.983Z,52.04
2023-02-22T01:46:40.631Z,51.96
2023-02-22T01:51:47.612Z,52.18
2023-02-22T01:57:15.610Z,52.09
2023-02-22T02:02:18.930Z,52.84
2023-02-22T02:07:22.690Z,52.36
2023-02-22T02:12:31.356Z,52.75
2023-02-22T02:17:34.467Z,52.91
2023-02-22T02:22:42.756Z,52.80
2023-02-22T02:28:03.760Z,52.82
2023-02-22T02:33:18.610Z,52.91
2023-02-22T02:38:32.187Z,52.92
2023-02-22T02:43:42.866Z,52.91
2023-02-22T02:48:54.757Z,53.13
2023-02-22T02:53:59.599Z,52.72
2023-02-22T02:59:01.160Z,53.00
2023-02-22T03:04:16.658Z,52.67
2023-02-22T03:09:40.312Z,52.40
2023-02-22T03:14:44.857Z,52.91
2023-02-22T03:20:22.275Z,52.93
2023-02-22T03:25:48.440Z,52.82
2023-02-22T03:30:56.862Z,53.18
2023-02-22T03:36:00.728Z,53.23
2023-02-22T03:41:06.562Z,53.04
2023-02-22T03:46:10.387Z,52.97
2023-02-22T03:51:17.371Z,53.10
2023-02-22T03:56:28.900Z,53.23
2023-02-22T04:01:30.567Z,53.24
2023-02-22T04:06:32.305Z,53.29
2023-02-22T04:11:35.895Z,53.28
2023-02-22T04:16:37.417Z,53.46
2023-02-22T04:21:42.689Z,53.53
2023-02-22T04:26:50.949Z,53.38
2023-02-22T04:31:53.736Z,53.24
2023-02-22T04:36:55.492Z,53.43
2023-02-22T04:41:57.323Z,53.34
2023-02-22T04:46:59.391Z,53.74
2023-02-22T04:52:01.291Z,53.60
2023-02-22T04:57:10.407Z,53.60
2023-02-22T05:02:12.304Z,53.69
2023-02-22T05:07:13.790Z,53.73
2023-02-22T05:12:15.425Z,53.89
2023-02-22T05:17:16.961Z,53.42
2023-02-22T05:22:18.527Z,52.45
2023-02-22T05:27:20.333Z,52.38
2023-02-22T05:32:21.848Z,52.04
2023-02-22T05:37:23.426Z,52.92
2023-02-22T05:42:25.392Z,53.20
2023-02-22T05:47:27.108Z,53.57
2023-02-22T05:52:28.682Z,53.63
2023-02-22T05:57:30.759Z,53.67
2023-02-22T06:02:33.046Z,53.74
2023-02-22T06:07:34.563Z,53.65
2023-02-22T06:12:36.180Z,53.63
2023-02-22T06:17:39.513Z,53.51
2023-02-22T06:22:41.286Z,53.61
2023-02-22T06:27:42.923Z,53.78
2023-02-22T06:32:47.211Z,53.69
2023-02-22T06:37:48.833Z,54.14
2023-02-22T06:42:50.306Z,53.71
2023-02-22T06:47:51.885Z,53.93
2023-02-22T06:52:53.567Z,53.76
2023-02-22T06:57:55.229Z,53.38
2023-02-22T07:02:57.592Z,53.40
2023-02-22T07:08:05.374Z,53.39
2023-02-22T07:13:10.298Z,53.96
2023-02-22T07:18:16.035Z,53.99
2023-02-22T07:23:18.276Z,54.31
2023-02-22T07:28:19.891Z,54.46
2023-02-22T07:33:21.457Z,54.31
2023-02-22T07:38:23.038Z,54.36
2023-02-22T07:43:26.727Z,54.32
2023-02-22T07:48:30.248Z,54.55
2023-02-22T07:53:33.630Z,54.56
2023-02-22T07:58:35.447Z,54.46
2023-02-22T08:03:38.094Z,54.75
2023-02-22T08:08:40.517Z,54.66
2023-02-22T08:13:42.017Z,54.83
2023-02-22T08:18:43.564Z,54.92
2023-02-22T08:23:45.171Z,55.37
2023-02-22T08:28:46.759Z,55.11
2023-02-22T08:33:51.661Z,55.30
2023-02-22T08:38:53.201Z,55.72
2023-02-22T08:43:54.725Z,55.68
2023-02-22T08:48:56.254Z,55.46
2023-02-22T08:53:57.841Z,55.48
2023-02-22T08:58:59.484Z,55.77
2023-02-22T09:04:02.152Z,55.67
2023-02-22T09:09:03.734Z,55.77
2023-02-22T09:14:05.268Z,55.52
2023-02-22T09:19:06.805Z,55.42
2023-02-22T09:24:08.790Z,55.57
2023-02-22T09:29:10.509Z,55.47
2023-02-22T09:34:15.697Z,55.65
2023-02-22T09:39:19.365Z,55.49
2023-02-22T09:44:29.897Z,55.53
2023-02-22T09:49:39.038Z,55.56
2023-02-22T09:55:04.757Z,55.57
2023-02-22T10:00:13.619Z,55.15
2023-02-22T10:05:33.684Z,55.29
2023-02-22T10:10:41.049Z,54.80
2023-02-22T10:15:47.602Z,54.78
2023-02-22T10:20:57.623Z,54.46
2023-02-22T10:26:13.642Z,54.33
2023-02-22T10:31:25.102Z,54.00
2023-02-22T10:36:27.732Z,54.42
2023-02-22T10:41:31.873Z,54.06
2023-02-22T10:46:34.558Z,53.71
2023-02-22T10:51:36.475Z,53.35
2023-02-22T10:56:48.126Z,53.17
2023-02-22T11:01:50.015Z,53.00
2023-02-22T11:07:00.770Z,52.51
2023-02-22T11:12:11.635Z,52.11
2023-02-22T11:17:18.978Z,52.07
2023-02-22T11:22:24.811Z,52.06
2023-02-22T11:27:38.152Z,52.00
2023-02-22T11:32:56.518Z,51.94
2023-02-22T11:38:36.738Z,51.73
2023-02-22T11:43:38.251Z,51.32
2023-02-22T11:48:44.878Z,51.19
2023-02-22T11:54:01.160Z,50.97
2023-02-22T11:59:21.183Z,50.69
2023-02-22T12:04:33.417Z,50.66
2023-02-22T12:09:42.906Z,50.42
2023-02-22T12:14:58.549Z,50.31
2023-02-22T12:20:25.038Z,50.17
2023-02-22T12:25:31.372Z,49.92
2023-02-22T12:30:41.146Z,49.75
2023-02-22T12:35:50.476Z,49.65
2023-02-22T12:41:18.737Z,49.11
2023-02-22T12:46:23.330Z,48.80
2023-02-22T12:52:12.433Z,48.87
2023-02-22T12:57:39.131Z,48.72
2023-02-22T13:02:47.715Z,48.38
2023-02-22T13:08:05.588Z,48.12
2023-02-22T13:13:35.964Z,48.07
2023-02-22T13:19:15.026Z,48.21
2023-02-22T13:24:28.280Z,48.38
2023-02-22T13:29:36.088Z,48.14
2023-02-22T13:34:49.746Z,47.89
2023-02-22T13:40:21.234Z,47.93
2023-02-22T13:46:07.790Z,47.67
2023-02-22T13:51:32.800Z,47.24
2023-02-22T13:56:34.650Z,47.24
2023-02-22T14:01:48.529Z,46.98
2023-02-22T14:06:51.202Z,46.98
2023-02-22T14:11:54.208Z,46.88
2023-02-22T14:17:25.224Z,47.08
2023-02-22T14:22:30.216Z,46.77
2023-02-22T14:27:41.417Z,46.75
2023-02-22T14:32:42.987Z,46.39
2023-02-22T14:37:51.444Z,46.46
2023-02-22T14:43:01.116Z,46.40
2023-02-22T14:48:39.337Z,46.35
2023-02-22T14:53:45.993Z,45.69
2023-02-22T14:59:18.447Z,45.50
2023-02-22T15:04:30.878Z,45.08
2023-02-22T15:09:37.496Z,44.38
2023-02-22T15:14:41.353Z,43.92
2023-02-22T15:19:43.123Z,43.81
2023-02-22T15:24:58.684Z,43.50
2023-02-22T15:30:04.597Z,43.13
2023-02-22T15:35:20.178Z,43.21
2023-02-22T15:40:21.859Z,42.89
2023-02-22T15:45:28.100Z,42.74
2023-02-22T15:50:30.818Z,42.76
2023-02-22T15:55:39.832Z,42.77
2023-02-22T16:00:49.959Z,42.87
2023-02-22T16:05:55.638Z,42.82
2023-02-22T16:11:05.594Z,42.78
2023-02-22T16:16:22.344Z,42.99
2023-02-22T16:21:23.864Z,43.04
2023-02-22T16:26:33.828Z,43.08
2023-02-22T16:31:40.039Z,43.11
2023-02-22T16:36:47.667Z,43.05
2023-02-22T16:41:50.929Z,43.24
2023-02-22T16:46:53.852Z,43.55
2023-02-22T16:51:59.766Z,43.47
2023-02-22T16:57:04.038Z,43.37
2023-02-22T17:02:07.629Z,43.50
2023-02-22T17:07:09.991Z,43.68
2023-02-22T17:12:11.592Z,43.93
2023-02-22T17:17:15.992Z,44.33
2023-02-22T17:22:20.254Z,44.29
2023-02-22T17:27:21.859Z,44.49
2023-02-22T17:32:23.460Z,44.60
2023-02-22T17:37:25.569Z,44.60
2023-02-22T17:42:27.094Z,44.65
2023-02-22T17:47:31.057Z,44.71
2023-02-22T17:52:32.971Z,45.17
2023-02-22T17:57:35.219Z,45.23
2023-02-22T18:02:36.763Z,45.31
2023-02-22T18:07:38.402Z,45.64
2023-02-22T18:12:40.838Z,45.58
2023-02-22T18:17:42.554Z,45.49
2023-02-22T18:22:44.664Z,45.61
2023-02-22T18:27:46.146Z,45.76
2023-02-22T18:32:47.826Z,45.80
2023-02-22T18:37:49.417Z,46.01
2023-02-22T18:42:51.004Z,45.91
2023-02-22T18:47:52.569Z,46.22
2023-02-22T18:52:55.359Z,46.05
2023-02-22T18:57:59.363Z,46.25
2023-02-22T19:03:01.252Z,46.45
2023-02-22T19:08:04.126Z,46.45
2023-02-22T19:13:10.674Z,46.45
2023-02-22T19:18:12.992Z,47.00
2023-02-22T19:23:16.870Z,46.93
2023-02-22T19:28:18.699Z,47.06
2023-02-22T19:33:20.918Z,47.00
2023-02-22T19:38:22.481Z,47.30
2023-02-22T19:43:24.118Z,47.31
2023-02-22T19:48:25.666Z,47.35
2023-02-22T19:53:27.161Z,47.35
2023-02-22T19:58:28.745Z,47.30
2023-02-22T20:03:34.936Z,47.46
2023-02-22T20:08:42.095Z,47.72
2023-02-22T20:13:43.868Z,47.99
2023-02-22T20:18:47.172Z,48.08
2023-02-22T20:23:49.116Z,48.24
2023-02-22T20:28:51.748Z,48.26
2023-02-22T20:33:55.940Z,48.39
2023-02-22T20:38:59.572Z,48.65
2023-02-22T20:44:02.802Z,48.64
2023-02-22T20:49:07.441Z,48.85
2023-02-22T20:54:12.016Z,48.85
2023-02-22T20:59:16.194Z,48.97
2023-02-22T21:04:20.273Z,48.79
2023-02-22T21:09:22.144Z,48.85
2023-02-22T21:14:25.055Z,48.86
2023-02-22T21:19:26.729Z,49.11
2023-02-22T21:24:29.022Z,49.13
2023-02-22T21:29:34.360Z,49.16
2023-02-22T21:34:36.606Z,49.04
2023-02-22T21:39:38.245Z,49.24
2023-02-22T21:44:40.125Z,49.42
2023-02-22T21:49:41.759Z,49.47
2023-02-22T21:54:43.400Z,49.46
2023-02-22T21:59:44.924Z,49.55
2023-02-22T22:04:46.508Z,49.70
2023-02-22T22:09:56.474Z,49.73
2023-02-22T22:14:58.657Z,49.57
2023-02-22T22:20:00.228Z,50.00
2023-02-22T22:25:03.386Z,49.74
2023-02-22T22:30:05.508Z,49.53
2023-02-22T22:35:14.519Z,49.83
2023-02-22T22:40:16.225Z,49.53
2023-02-22T22:45:18.103Z,49.71
2023-02-22T22:50:19.920Z,49.71
2023-02-22T22:55:24.228Z,49.58
2023-02-22T23:00:27.460Z,50.27
2023-02-22T23:05:29.344Z,50.26
2023-02-22T23:10:33.117Z,50.22
2023-02-22T23:15:34.747Z,49.97
2023-02-22T23:20:38.929Z,49.87
2023-02-22T23:25:43.838Z,50.02
2023-02-22T23:30:45.377Z,49.95
2023-02-22T23:35:49.901Z,49.92
2023-02-22T23:40:53.984Z,50.29
2023-02-22T23:45:57.218Z,49.68
2023-02-22T23:51:01.726Z,49.82
2023-02-22T23:56:09.851Z,50.48
